createdAt,value
2023-08-13T00:02:44.631Z,99490.88
2023-08-13T00:05:49.472Z,99496.28
2023-08-13T00:08:51.417Z,99497.72
2023-08-13T00:11:54.544Z,99505.78
2023-08-13T00:14:56.511Z,99497.63
2023-08-13T00:17:58.590Z,99502.59
2023-08-13T00:21:01.194Z,99500.47
2023-08-13T00:24:03.011Z,99500.28
2023-08-13T00:27:05.262Z,99494.25
2023-08-13T00:30:07.918Z,99492.56
2023-08-13T00:33:09.738Z,99489.63
2023-08-13T00:36:12.712Z,99496.88
2023-08-13T00:39:20.495Z,99490.47
2023-08-13T00:42:22.432Z,99500.00
2023-08-13T00:45:24.958Z,99494.16
2023-08-13T00:48:27.239Z,99498.94
2023-08-13T00:51:30.367Z,99493.09
2023-08-13T00:54:32.409Z,99498.69
2023-08-13T00:57:34.703Z,99502.22
2023-08-13T01:00:36.678Z,99505.75
2023-08-13T01:03:39.258Z,99497.66
2023-08-13T01:06:57.388Z,99505.75
2023-08-13T01:10:27.236Z,99499.13
2023-08-13T01:13:38.550Z,99504.97
2023-08-13T01:16:44.038Z,99504.97
2023-08-13T01:19:46.019Z,99501.44
2023-08-13T01:22:50.808Z,99497.91
2023-08-13T01:25:59.252Z,99496.03
2023-08-13T01:29:10.333Z,99495.81
2023-08-13T01:32:15.822Z,99498.94
2023-08-13T01:35:23.150Z,99496.22
2023-08-13T01:38:26.856Z,99506.59
2023-08-13T01:41:48.835Z,99501.19
2023-08-13T01:44:50.786Z,99505.13
2023-08-13T01:47:52.908Z,99508.47
2023-08-13T01:50:55.165Z,99507.19
2023-08-13T01:53:57.117Z,99510.72
2023-08-13T01:56:59.001Z,99508.03
2023-08-13T02:00:00.935Z,99520.50
2023-08-13T02:03:03.132Z,99519.69
2023-08-13T02:06:05.090Z,99519.47
2023-08-13T02:09:07.021Z,99515.34
2023-08-13T02:12:09.156Z,99515.78
2023-08-13T02:15:11.240Z,99521.00
2023-08-13T02:18:18.867Z,99521.44
2023-08-13T02:21:21.148Z,99521.63
2023-08-13T02:24:23.137Z,99520.41
2023-08-13T02:27:25.070Z,99517.69
2023-08-13T02:30:26.979Z,99529.16
2023-08-13T02:33:28.965Z,99522.06
2023-08-13T02:36:30.972Z,99527.47
2023-08-13T02:39:32.891Z,99528.31
2023-08-13T02:42:34.941Z,99531.66
2023-08-13T02:45:36.828Z,99530.44
2023-08-13T02:48:38.831Z,99524.81
2023-08-13T02:51:40.732Z,99536.09
2023-08-13T02:54:42.603Z,99534.00
2023-08-13T02:57:56.474Z,99532.97
2023-08-13T03:01:07.000Z,99528.22
2023-08-13T03:04:08.879Z,99536.31
2023-08-13T03:07:10.853Z,99536.56
2023-08-13T03:10:13.453Z,99533.47
2023-08-13T03:13:15.247Z,99541.81
2023-08-13T03:16:17.474Z,99544.56
2023-08-13T03:19:20.467Z,99545.63
2023-08-13T03:22:22.556Z,99552.75
2023-08-13T03:25:24.610Z,99551.13
2023-08-13T03:28:26.574Z,99562.81
2023-08-13T03:31:29.738Z,99555.78
2023-08-13T03:34:37.478Z,99554.97
2023-08-13T03:37:39.442Z,99567.72
2023-08-13T03:40:41.352Z,99562.31
2023-08-13T03:43:43.359Z,99564.22
2023-08-13T03:46:45.366Z,99563.84
2023-08-13T03:49:47.371Z,99567.41
2023-08-13T03:52:49.319Z,99564.94
2023-08-13T03:55:52.852Z,99565.81
2023-08-13T03:58:54.960Z,99566.66
2023-08-13T04:01:59.035Z,99576.09
2023-08-13T04:05:01.252Z,99576.09
2023-08-13T04:08:03.889Z,99577.31
2023-08-13T04:11:06.268Z,99574.97
2023-08-13T04:14:08.801Z,99585.31
2023-08-13T04:17:10.792Z,99583.09
2023-08-13T04:20:13.755Z,99583.78
2023-08-13T04:23:15.637Z,99578.19
2023-08-13T04:26:17.892Z,99574.03
2023-08-13T04:29:19.893Z,99577.56
2023-08-13T04:32:22.068Z,99585.13
2023-08-13T04:35:24.367Z,99578.53
2023-08-13T04:38:26.361Z,99577.59
2023-08-13T04:41:31.064Z,99579.41
2023-08-13T04:44:33.072Z,99572.84
2023-08-13T04:47:37.953Z,99568.88
2023-08-13T04:50:40.364Z,99575.31
2023-08-13T04:53:43.525Z,99574.63
2023-08-13T04:56:46.154Z,99573.25
2023-08-13T04:59:48.123Z,99578.25
2023-08-13T05:02:50.386Z,99575.63
2023-08-13T05:05:53.038Z,99582.13
2023-08-13T05:08:54.984Z,99576.66
2023-08-13T05:11:57.187Z,99582.19
2023-08-13T05:14:59.206Z,99589.53
2023-08-13T05:18:01.529Z,99582.56
2023-08-13T05:21:03.536Z,99579.28
2023-08-13T05:24:06.297Z,99587.97
2023-08-13T05:27:08.249Z,99585.09
2023-08-13T05:30:11.308Z,99585.41
2023-08-13T05:33:13.459Z,99582.53
2023-08-13T05:36:15.887Z,99587.72
2023-08-13T05:39:17.946Z,99586.91
2023-08-13T05:42:21.037Z,99591.53
2023-08-13T05:45:23.067Z,99596.75
2023-08-13T05:48:24.935Z,99598.78
2023-08-13T05:51:26.904Z,99596.94
2023-08-13T05:54:28.773Z,99603.88
2023-08-13T05:57:30.748Z,99602.53
2023-08-13T06:00:32.964Z,99604.00
2023-08-13T06:03:34.725Z,99598.13
2023-08-13T06:06:36.692Z,99603.28
2023-08-13T06:09:38.580Z,99602.19
2023-08-13T06:12:40.515Z,99607.56
2023-08-13T06:15:42.484Z,99602.38
2023-08-13T06:18:44.343Z,99603.06
2023-08-13T06:21:46.291Z,99605.88
2023-08-13T06:24:48.685Z,99608.91
2023-08-13T06:27:50.765Z,99606.53
2023-08-13T06:30:52.653Z,99611.59
2023-08-13T06:33:54.588Z,99611.66
2023-08-13T06:36:56.466Z,99619.44
2023-08-13T06:39:58.404Z,99608.16
2023-08-13T06:43:00.258Z,99613.13
2023-08-13T06:46:03.088Z,99612.06
2023-08-13T06:49:05.006Z,99605.41
2023-08-13T06:52:07.472Z,99611.50
2023-08-13T06:55:09.642Z,99609.56
2023-08-13T06:58:11.516Z,99614.53
2023-08-13T07:01:13.443Z,99613.97
2023-08-13T07:04:15.225Z,99606.22
2023-08-13T07:07:17.177Z,99611.69
2023-08-13T07:10:18.976Z,99603.09
2023-08-13T07:13:20.896Z,99605.44
2023-08-13T07:16:22.773Z,99611.53
2023-08-13T07:19:25.772Z,99605.09
2023-08-13T07:22:27.799Z,99615.91
2023-08-13T07:25:29.694Z,99614.69
2023-08-13T07:28:33.877Z,99613.47
2023-08-13T07:31:36.262Z,99613.59
2023-08-13T07:34:38.245Z,99618.59
2023-08-13T07:37:40.540Z,99617.94
2023-08-13T07:40:42.655Z,99617.44
2023-08-13T07:43:44.636Z,99616.94
2023-08-13T07:46:46.535Z,99615.84
2023-08-13T07:49:48.461Z,99610.81
2023-08-13T07:52:51.434Z,99611.53
2023-08-13T07:55:53.329Z,99616.34
2023-08-13T07:58:55.235Z,99613.09
2023-08-13T08:01:57.198Z,99614.91
2023-08-13T08:04:59.083Z,99607.53
2023-08-13T08:08:02.086Z,99605.78
2023-08-13T08:11:03.984Z,99601.78
2023-08-13T08:14:05.855Z,99600.19
2023-08-13T08:17:08.797Z,99602.19
2023-08-13T08:20:12.793Z,99605.16
2023-08-13T08:23:15.299Z,99608.66
2023-08-13T08:26:17.219Z,99607.00
2023-08-13T08:29:19.370Z,99605.72
2023-08-13T08:32:21.237Z,99599.19
2023-08-13T08:35:23.109Z,99598.53
2023-08-13T08:38:25.101Z,99600.84
2023-08-13T08:41:29.236Z,99600.84
2023-08-13T08:44:33.714Z,99612.75
2023-08-13T08:47:36.433Z,99607.13
2023-08-13T08:50:39.112Z,99617.41
2023-08-13T08:53:41.208Z,99612.59
2023-08-13T08:56:43.205Z,99614.97
2023-08-13T08:59:46.072Z,99608.13
2023-08-13T09:02:48.291Z,99603.78
2023-08-13T09:05:50.485Z,99607.13
2023-08-13T09:08:53.340Z,99600.63
2023-08-13T09:11:56.582Z,99606.09
2023-08-13T09:15:04.403Z,99594.78
2023-08-13T09:18:06.770Z,99607.59
2023-08-13T09:21:10.290Z,99604.16
2023-08-13T09:24:12.216Z,99607.72
2023-08-13T09:27:14.198Z,99608.81
2023-08-13T09:30:29.755Z,99610.03
2023-08-13T09:33:33.821Z,99617.78
2023-08-13T09:36:36.196Z,99610.41
2023-08-13T09:39:38.498Z,99605.41
2023-08-13T09:42:40.398Z,99612.44
2023-08-13T09:45:44.622Z,99620.81
2023-08-13T09:48:47.683Z,99614.31
2023-08-13T09:51:50.606Z,99611.44
2023-08-13T09:55:11.084Z,99607.31
2023-08-13T09:58:15.638Z,99609.31
2023-08-13T10:01:18.506Z,99606.78
2023-08-13T10:04:22.487Z,99610.44
2023-08-13T10:07:25.559Z,99606.41
2023-08-13T10:10:30.315Z,99605.03
2023-08-13T10:13:32.300Z,99617.91
2023-08-13T10:16:34.502Z,99611.75
2023-08-13T10:19:40.350Z,99621.56
2023-08-13T10:22:42.289Z,99619.38
2023-08-13T10:25:46.131Z,99618.72
2023-08-13T10:28:54.342Z,99622.69
2023-08-13T10:32:00.285Z,99617.78
2023-08-13T10:35:40.823Z,99609.59
2023-08-13T10:38:42.703Z,99609.53
2023-08-13T10:41:44.551Z,99617.47
2023-08-13T10:44:48.758Z,99617.78
2023-08-13T10:47:59.772Z,99616.34
2023-08-13T10:51:02.070Z,99623.94
2023-08-13T10:54:04.319Z,99620.53
2023-08-13T10:57:07.320Z,99621.31
2023-08-13T11:00:14.708Z,99616.47
2023-08-13T11:03:23.516Z,99620.41
2023-08-13T11:06:29.366Z,99612.13
2023-08-13T11:09:31.628Z,99614.03
2023-08-13T11:12:33.850Z,99613.31
2023-08-13T11:15:36.065Z,99613.84
2023-08-13T11:18:38.102Z,99599.91
2023-08-13T11:21:40.150Z,99619.81
2023-08-13T11:24:46.012Z,99611.25
2023-08-13T11:27:47.936Z,99608.97
2023-08-13T11:30:52.799Z,99607.44
2023-08-13T11:33:54.698Z,99616.47
2023-08-13T11:36:57.900Z,99609.50
2023-08-13T11:39:59.895Z,99610.22
2023-08-13T11:43:03.005Z,99616.19
2023-08-13T11:46:05.441Z,99607.31
2023-08-13T11:49:16.564Z,99609.38
2023-08-13T11:52:22.645Z,99603.56
2023-08-13T11:55:25.310Z,99611.56
2023-08-13T11:58:27.246Z,99604.91
2023-08-13T12:01:29.169Z,99603.19
2023-08-13T12:04:37.343Z,99608.69
2023-08-13T12:07:43.030Z,99604.91
2023-08-13T12:10:44.932Z,99606.56
2023-08-13T12:13:47.357Z,99604.66
2023-08-13T12:16:49.587Z,99597.97
2023-08-13T12:19:51.534Z,99604.06
2023-08-13T12:22:53.650Z,99604.41
2023-08-13T12:25:55.580Z,99606.94
2023-08-13T12:28:57.727Z,99597.13
2023-08-13T12:32:00.563Z,99607.44
2023-08-13T12:35:04.422Z,99608.88
2023-08-13T12:38:06.286Z,99603.25
2023-08-13T12:41:08.799Z,99600.13
2023-08-13T12:44:11.249Z,99598.88
2023-08-13T12:47:14.569Z,99599.47
2023-08-13T12:50:16.482Z,99604.50
2023-08-13T12:53:18.485Z,99604.22
2023-08-13T12:56:20.346Z,99596.03
2023-08-13T12:59:22.344Z,99591.94
2023-08-13T13:02:27.923Z,99595.06
2023-08-13T13:05:31.162Z,99602.50
2023-08-13T13:08:33.140Z,99611.25
2023-08-13T13:11:35.807Z,99608.25
2023-08-13T13:14:37.719Z,99596.91
2023-08-13T13:17:39.710Z,99600.94
2023-08-13T13:20:41.671Z,99600.94
2023-08-13T13:23:43.583Z,99607.03
2023-08-13T13:26:45.472Z,99601.44
2023-08-13T13:29:47.408Z,99601.03
2023-08-13T13:32:49.384Z,99593.47
2023-08-13T13:35:51.357Z,99603.53
2023-08-13T13:38:53.258Z,99592.16
2023-08-13T13:41:55.121Z,99594.25
2023-08-13T13:44:57.106Z,99595.66
2023-08-13T13:47:59.071Z,99586.41
2023-08-13T13:51:01.008Z,99583.34
2023-08-13T13:54:04.029Z,99594.38
2023-08-13T13:57:06.090Z,99588.94
2023-08-13T14:00:08.698Z,99589.97
2023-08-13T14:03:10.846Z,99592.59
2023-08-13T14:06:12.842Z,99584.47
2023-08-13T14:09:17.106Z,99587.91
2023-08-13T14:12:19.240Z,99592.44
2023-08-13T14:15:21.255Z,99594.50
2023-08-13T14:18:23.232Z,99586.34
2023-08-13T14:21:25.159Z,99594.72
2023-08-13T14:24:27.087Z,99597.63
2023-08-13T14:27:29.548Z,99603.75
2023-08-13T14:30:31.490Z,99601.00
2023-08-13T14:33:33.382Z,99598.63
2023-08-13T14:36:35.761Z,99602.03
2023-08-13T14:39:37.737Z,99595.03
2023-08-13T14:42:39.842Z,99599.50
2023-08-13T14:45:41.787Z,99597.97
2023-08-13T14:48:43.777Z,99608.97
2023-08-13T14:51:46.206Z,99605.78
2023-08-13T14:54:48.244Z,99609.31
2023-08-13T14:57:50.126Z,99613.50
2023-08-13T15:00:52.142Z,99606.50
2023-08-13T15:03:54.296Z,99606.50
2023-08-13T15:06:56.222Z,99610.53
2023-08-13T15:09:58.190Z,99614.47
2023-08-13T15:13:00.046Z,99620.69
2023-08-13T15:16:02.623Z,99618.59
2023-08-13T15:19:04.959Z,99620.06
2023-08-13T15:22:06.913Z,99614.88
2023-08-13T15:25:09.086Z,99623.81
2023-08-13T15:28:11.013Z,99618.06
2023-08-13T15:31:12.918Z,99626.34
2023-08-13T15:34:16.003Z,99620.59
2023-08-13T15:37:17.930Z,99621.16
2023-08-13T15:40:20.103Z,99624.44
2023-08-13T15:43:23.232Z,99622.78
2023-08-13T15:46:25.221Z,99627.72
2023-08-13T15:49:27.311Z,99631.56
2023-08-13T15:52:29.382Z,99635.94
2023-08-13T15:55:31.631Z,99634.78
2023-08-13T15:58:36.576Z,99626.47
2023-08-13T16:01:40.129Z,99628.09
2023-08-13T16:04:42.022Z,99627.47
2023-08-13T16:07:47.006Z,99635.13
2023-08-13T16:10:59.788Z,99632.25
2023-08-13T16:14:01.752Z,99629.72
2023-08-13T16:17:03.722Z,99631.84
2023-08-13T16:20:06.543Z,99636.97
2023-08-13T16:23:08.559Z,99630.28
2023-08-13T16:26:10.385Z,99633.16
2023-08-13T16:29:12.250Z,99642.72
2023-08-13T16:32:24.409Z,99652.78
2023-08-13T16:35:31.572Z,99647.44
2023-08-13T16:38:33.574Z,99649.47
2023-08-13T16:41:35.455Z,99647.66
2023-08-13T16:44:37.273Z,99647.75
2023-08-13T16:47:39.171Z,99649.03
2023-08-13T16:50:41.442Z,99644.38
2023-08-13T16:53:43.395Z,99644.38
2023-08-13T16:56:45.342Z,99644.00
2023-08-13T16:59:47.079Z,99641.28
2023-08-13T17:02:49.136Z,99647.53
2023-08-13T17:05:53.830Z,99658.75
2023-08-13T17:08:56.085Z,99656.59
2023-08-13T17:11:57.812Z,99657.72
2023-08-13T17:15:12.003Z,99656.47
2023-08-13T17:18:21.717Z,99667.75
2023-08-13T17:21:23.534Z,99672.34
2023-08-13T17:24:25.421Z,99663.22
2023-08-13T17:27:27.385Z,99682.78
2023-08-13T17:30:29.363Z,99677.69
2023-08-13T17:33:31.228Z,99678.72
2023-08-13T17:36:33.199Z,99680.88
2023-08-13T17:39:35.152Z,99681.81
2023-08-13T17:42:37.168Z,99686.09
2023-08-13T17:45:41.203Z,99688.03
2023-08-13T17:48:43.102Z,99692.31
2023-08-13T17:51:45.121Z,99685.16
2023-08-13T17:54:46.983Z,99688.94
2023-08-13T17:57:48.972Z,99692.88
2023-08-13T18:00:51.048Z,99700.94
2023-08-13T18:03:52.911Z,99703.53
2023-08-13T18:06:54.826Z,99704.59
2023-08-13T18:09:56.741Z,99706.47
2023-08-13T18:12:58.943Z,99705.03
2023-08-13T18:16:02.321Z,99711.38
2023-08-13T18:19:04.506Z,99708.41
2023-08-13T18:22:06.217Z,99705.16
2023-08-13T18:25:10.572Z,99718.44
2023-08-13T18:28:12.771Z,99709.16
2023-08-13T18:31:14.560Z,99711.81
2023-08-13T18:34:16.528Z,99713.56
2023-08-13T18:37:18.720Z,99717.22
2023-08-13T18:40:20.826Z,99716.00
2023-08-13T18:43:22.738Z,99714.81
2023-08-13T18:46:24.695Z,99722.00
2023-08-13T18:49:26.701Z,99720.19
2023-08-13T18:52:28.673Z,99725.03
2023-08-13T18:55:30.668Z,99714.81
2023-08-13T18:58:32.792Z,99719.28
2023-08-13T19:01:34.777Z,99716.84
2023-08-13T19:04:36.741Z,99718.72
2023-08-13T19:07:38.730Z,99727.13
2023-08-13T19:10:46.617Z,99723.94
2023-08-13T19:13:48.533Z,99722.78
2023-08-13T19:16:50.417Z,99726.34
2023-08-13T19:19:52.431Z,99725.72
2023-08-13T19:22:54.402Z,99730.34
2023-08-13T19:25:56.432Z,99729.59
2023-08-13T19:28:58.938Z,99732.56
2023-08-13T19:32:00.931Z,99730.72
2023-08-13T19:35:02.981Z,99733.97
2023-08-13T19:38:05.325Z,99737.56
2023-08-13T19:41:07.291Z,99737.44
2023-08-13T19:44:12.283Z,99729.09
2023-08-13T19:47:18.302Z,99734.78
2023-08-13T19:50:20.281Z,99734.06
2023-08-13T19:53:22.245Z,99741.47
2023-08-13T19:56:24.200Z,99744.06
2023-08-13T19:59:26.141Z,99751.19
2023-08-13T20:02:28.651Z,99745.78
2023-08-13T20:05:30.728Z,99755.44
2023-08-13T20:08:32.669Z,99751.91
2023-08-13T20:11:34.565Z,99757.56
2023-08-13T20:14:36.478Z,99762.59
2023-08-13T20:17:39.318Z,99764.28
2023-08-13T20:20:41.357Z,99760.09
2023-08-13T20:23:43.319Z,99755.31
2023-08-13T20:26:46.025Z,99752.34
2023-08-13T20:29:47.995Z,99752.16
2023-08-13T20:32:50.512Z,99752.59
2023-08-13T20:35:52.478Z,99748.03
2023-08-13T20:38:54.411Z,99755.34
2023-08-13T20:41:56.340Z,99746.38
2023-08-13T20:44:58.186Z,99753.06
2023-08-13T20:48:00.159Z,99751.59
2023-08-13T20:51:02.341Z,99755.59
2023-08-13T20:54:04.374Z,99754.53
2023-08-13T20:57:06.439Z,99755.59
2023-08-13T21:00:08.891Z,99752.47
2023-08-13T21:03:11.842Z,99758.97
2023-08-13T21:06:13.813Z,99755.00
2023-08-13T21:09:15.768Z,99758.56
2023-08-13T21:12:17.978Z,99751.47
2023-08-13T21:15:19.903Z,99752.72
2023-08-13T21:18:21.837Z,99755.25
2023-08-13T21:21:23.763Z,99754.41
2023-08-13T21:24:25.631Z,99755.03
2023-08-13T21:27:27.495Z,99759.00
2023-08-13T21:30:29.392Z,99764.44
2023-08-13T21:33:31.251Z,99764.66
2023-08-13T21:36:33.281Z,99771.50
2023-08-13T21:39:35.128Z,99774.44
2023-08-13T21:42:36.959Z,99780.50
2023-08-13T21:45:38.798Z,99776.53
2023-08-13T21:48:40.679Z,99779.44
2023-08-13T21:51:44.663Z,99786.34
2023-08-13T21:54:46.586Z,99781.09
2023-08-13T21:57:48.525Z,99778.38
2023-08-13T22:00:50.698Z,99777.13
2023-08-13T22:03:53.458Z,99776.28
2023-08-13T22:06:56.824Z,99787.34
2023-08-13T22:09:59.774Z,99782.34
2023-08-13T22:13:01.825Z,99780.88
2023-08-13T22:16:04.966Z,99782.75
2023-08-13T22:19:07.806Z,99782.75
2023-08-13T22:22:09.680Z,99781.91
2023-08-13T22:25:13.168Z,99787.75
2023-08-13T22:28:15.145Z,99780.03
2023-08-13T22:31:17.211Z,99787.31
2023-08-13T22:34:19.105Z,99786.06
2023-08-13T22:37:21.036Z,99790.44
2023-08-13T22:40:22.917Z,99785.41
2023-08-13T22:43:24.810Z,99788.13
2023-08-13T22:46:28.401Z,99792.31
2023-08-13T22:49:35.288Z,99793.97
2023-08-13T22:52:37.128Z,99796.69
2023-08-13T22:55:39.120Z,99800.41
2023-08-13T22:58:41.006Z,99793.97
2023-08-13T23:01:45.507Z,99797.50
2023-08-13T23:04:47.625Z,99789.56
2023-08-13T23:07:49.488Z,99793.53
2023-08-13T23:10:51.423Z,99796.44
2023-08-13T23:13:53.640Z,99795.81
2023-08-13T23:16:55.776Z,99800.19
2023-08-13T23:19:58.073Z,99809.38
2023-08-13T23:23:00.000Z,99799.97
2023-08-13T23:26:01.933Z,99808.28
2023-08-13T23:29:03.940Z,99810.56
2023-08-13T23:32:06.040Z,99805.53
2023-08-13T23:35:08.482Z,99805.13
2023-08-13T23:38:10.316Z,99809.69
2023-08-13T23:41:12.261Z,99808.47
2023-08-13T23:44:14.193Z,99814.72
2023-08-13T23:47:16.044Z,99819.31
2023-08-13T23:50:18.065Z,99818.03
2023-08-13T23:53:19.946Z,99818.41
2023-08-13T23:56:21.838Z,99822.56
2023-08-13T23:59:23.707Z,99819.59
